sensor_id;sensor_type;location;lat;lon;timestamp;pressure;altitude;pressure_sealevel;temperature
15544;BMP180;7873;52.230;12.856;2023-12-20T00:00:25;100204.97;;;28.20
15544;BMP180;7873;52.230;12.856;2023-12-20T00:02:52;100211.88;;;28.16
15544;BMP180;7873;52.230;12.856;2023-12-20T00:05:18;100210.22;;;28.15
15544;BMP180;7873;52.230;12.856;2023-12-20T00:07:45;100213.38;;;28.12
15544;BMP180;7873;52.230;12.856;2023-12-20T00:10:11;100199.25;;;28.10
15544;BMP180;7873;52.230;12.856;2023-12-20T00:12:39;100200.72;;;28.06
15544;BMP180;7873;52.230;12.856;2023-12-20T00:15:07;100199.06;;;28.05
15544;BMP180;7873;52.230;12.856;2023-12-20T00:17:34;100190.59;;;28.01
15544;BMP180;7873;52.230;12.856;2023-12-20T00:20:01;100190.78;;;28.00
15544;BMP180;7873;52.230;12.856;2023-12-20T00:22:27;100184.78;;;27.98
15544;BMP180;7873;52.230;12.856;2023-12-20T00:24:54;100188.97;;;27.94
15544;BMP180;7873;52.230;12.856;2023-12-20T00:27:20;100185.22;;;27.95
15544;BMP180;7873;52.230;12.856;2023-12-20T00:29:47;100187.53;;;27.91
15544;BMP180;7873;52.230;12.856;2023-12-20T00:32:16;100188.59;;;27.90
15544;BMP180;7873;52.230;12.856;2023-12-20T00:34:43;100182.56;;;27.88
15544;BMP180;7873;52.230;12.856;2023-12-20T00:37:09;100179.50;;;27.85
15544;BMP180;7873;52.230;12.856;2023-12-20T00:39:36;100172.63;;;27.82
15544;BMP180;7873;52.230;12.856;2023-12-20T00:42:03;100168.28;;;27.81
15544;BMP180;7873;52.230;12.856;2023-12-20T00:44:29;100175.78;;;27.79
15544;BMP180;7873;52.230;12.856;2023-12-20T00:46:56;100175.78;;;27.79
15544;BMP180;7873;52.230;12.856;2023-12-20T00:49:23;100167.50;;;27.74
15544;BMP180;7873;52.230;12.856;2023-12-20T00:51:50;100168.56;;;27.73
15544;BMP180;7873;52.230;12.856;2023-12-20T00:54:18;100171.69;;;27.70
15544;BMP180;7873;52.230;12.856;2023-12-20T00:56:44;100174.59;;;27.69
15544;BMP180;7873;52.230;12.856;2023-12-20T00:59:11;100186.06;;;27.64
15544;BMP180;7873;52.230;12.856;2023-12-20T01:01:37;100180.25;;;27.61
15544;BMP180;7873;52.230;12.856;2023-12-20T01:04:04;100178.59;;;27.60
15544;BMP180;7873;52.230;12.856;2023-12-20T01:06:32;100179.66;;;27.59
15544;BMP180;7873;52.230;12.856;2023-12-20T01:08:58;100166.38;;;27.57
15544;BMP180;7873;52.230;12.856;2023-12-20T01:11:24;100171.97;;;27.56
15544;BMP180;7873;52.230;12.856;2023-12-20T01:13:51;100174.94;;;27.54
15544;BMP180;7873;52.230;12.856;2023-12-20T01:16:17;100169.13;;;27.51
15544;BMP180;7873;52.230;12.856;2023-12-20T01:18:44;100169.31;;;27.49
15544;BMP180;7873;52.230;12.856;2023-12-20T01:21:10;100172.47;;;27.46
15544;BMP180;7873;52.230;12.856;2023-12-20T01:23:38;100176.81;;;27.47
15544;BMP180;7873;52.230;12.856;2023-12-20T01:26:04;100182.47;;;27.46
15544;BMP180;7873;52.230;12.856;2023-12-20T01:28:31;100182.31;;;27.41
15544;BMP180;7873;52.230;12.856;2023-12-20T01:30:58;100184.16;;;27.40
15544;BMP180;7873;52.230;12.856;2023-12-20T01:33:24;100181.91;;;27.38
15544;BMP180;7873;52.230;12.856;2023-12-20T01:35:51;100172.34;;;27.35
15544;BMP180;7873;52.230;12.856;2023-12-20T01:38:17;100169.03;;;27.33
15544;BMP180;7873;52.230;12.856;2023-12-20T01:40:45;100177.16;;;27.33
15544;BMP180;7873;52.230;12.856;2023-12-20T01:43:13;100181.13;;;27.31
15544;BMP180;7873;52.230;12.856;2023-12-20T01:45:40;100183.22;;;27.29
15544;BMP180;7873;52.230;12.856;2023-12-20T01:48:08;100170.53;;;27.29
15544;BMP180;7873;52.230;12.856;2023-12-20T01:50:35;100160.97;;;27.27
15544;BMP180;7873;52.230;12.856;2023-12-20T01:53:03;100160.34;;;27.25
15544;BMP180;7873;52.230;12.856;2023-12-20T01:55:33;100163.50;;;27.22
15544;BMP180;7873;52.230;12.856;2023-12-20T01:58:02;100156.66;;;27.19
15544;BMP180;7873;52.230;12.856;2023-12-20T02:00:30;100154.41;;;27.16
15544;BMP180;7873;52.230;12.856;2023-12-20T02:03:00;100145.66;;;27.14
15544;BMP180;7873;52.230;12.856;2023-12-20T02:05:27;100150.69;;;27.11
15544;BMP180;7873;52.230;12.856;2023-12-20T02:07:54;100151.72;;;27.10
15544;BMP180;7873;52.230;12.856;2023-12-20T02:10:20;100153.78;;;27.08
15544;BMP180;7873;52.230;12.856;2023-12-20T02:12:47;100147.56;;;27.07
15544;BMP180;7873;52.230;12.856;2023-12-20T02:15:15;100146.94;;;27.05
15544;BMP180;7873;52.230;12.856;2023-12-20T02:17:41;100140.06;;;27.03
15544;BMP180;7873;52.230;12.856;2023-12-20T02:20:08;100151.72;;;27.03
15544;BMP180;7873;52.230;12.856;2023-12-20T02:22:36;100150.88;;;27.03
15544;BMP180;7873;52.230;12.856;2023-12-20T02:25:03;100151.94;;;27.02
15544;BMP180;7873;52.230;12.856;2023-12-20T02:27:30;100152.38;;;26.99
15544;BMP180;7873;52.230;12.856;2023-12-20T02:29:57;100153.41;;;26.98
15544;BMP180;7873;52.230;12.856;2023-12-20T02:32:24;100153.84;;;26.95
15544;BMP180;7873;52.230;12.856;2023-12-20T02:34:51;100145.97;;;26.93
15544;BMP180;7873;52.230;12.856;2023-12-20T02:37:18;100149.72;;;26.92
15544;BMP180;7873;52.230;12.856;2023-12-20T02:39:46;100152.63;;;26.91
15544;BMP180;7873;52.230;12.856;2023-12-20T02:42:12;100154.50;;;26.90
15544;BMP180;7873;52.230;12.856;2023-12-20T02:44:39;100148.47;;;26.88
15544;BMP180;7873;52.230;12.856;2023-12-20T02:47:05;100147.06;;;26.86
15544;BMP180;7873;52.230;12.856;2023-12-20T02:49:32;100153.50;;;26.85
15544;BMP180;7873;52.230;12.856;2023-12-20T02:51:58;100154.75;;;26.82
15544;BMP180;7873;52.230;12.856;2023-12-20T02:54:25;100155.00;;;26.81
15544;BMP180;7873;52.230;12.856;2023-12-20T02:56:52;100153.53;;;26.78
15544;BMP180;7873;52.230;12.856;2023-12-20T02:59:19;100152.91;;;26.76
15544;BMP180;7873;52.230;12.856;2023-12-20T03:01:45;100164.78;;;26.75
15544;BMP180;7873;52.230;12.856;2023-12-20T03:04:12;100148.56;;;26.75
15544;BMP180;7873;52.230;12.856;2023-12-20T03:06:39;100159.81;;;26.72
15544;BMP180;7873;52.230;12.856;2023-12-20T03:09:05;100158.16;;;26.71
15544;BMP180;7873;52.230;12.856;2023-12-20T03:11:32;100170.81;;;26.71
15544;BMP180;7873;52.230;12.856;2023-12-20T03:13:59;100172.69;;;26.70
15544;BMP180;7873;52.230;12.856;2023-12-20T03:16:26;100169.34;;;26.68
15544;BMP180;7873;52.230;12.856;2023-12-20T03:18:52;100165.22;;;26.66
15544;BMP180;7873;52.230;12.856;2023-12-20T03:21:19;100173.34;;;26.66
15544;BMP180;7873;52.230;12.856;2023-12-20T03:23:45;100168.13;;;26.64
15544;BMP180;7873;52.230;12.856;2023-12-20T03:26:12;100166.69;;;26.62
15544;BMP180;7873;52.230;12.856;2023-12-20T03:28:38;100170.44;;;26.61
15544;BMP180;7873;52.230;12.856;2023-12-20T03:31:06;100163.41;;;26.60
15544;BMP180;7873;52.230;12.856;2023-12-20T03:33:33;100164.44;;;26.59
15544;BMP180;7873;52.230;12.856;2023-12-20T03:35:59;100168.38;;;26.56
15544;BMP180;7873;52.230;12.856;2023-12-20T03:38:26;100176.47;;;26.56
15544;BMP180;7873;52.230;12.856;2023-12-20T03:40:52;100187.28;;;26.56
15544;BMP180;7873;52.230;12.856;2023-12-20T03:43:19;100174.22;;;26.53
15544;BMP180;7873;52.230;12.856;2023-12-20T03:45:45;100173.38;;;26.53
15544;BMP180;7873;52.230;12.856;2023-12-20T03:48:13;100170.28;;;26.49
15544;BMP180;7873;52.230;12.856;2023-12-20T03:50:40;100166.09;;;26.47
15544;BMP180;7873;52.230;12.856;2023-12-20T03:53:06;100160.28;;;26.43
15544;BMP180;7873;52.230;12.856;2023-12-20T03:55:33;100163.22;;;26.42
15544;BMP180;7873;52.230;12.856;2023-12-20T03:57:59;100155.53;;;26.39
15544;BMP180;7873;52.230;12.856;2023-12-20T04:00:26;100159.66;;;26.41
15544;BMP180;7873;52.230;12.856;2023-12-20T04:02:52;100153.66;;;26.39
15544;BMP180;7873;52.230;12.856;2023-12-20T04:05:20;100154.69;;;26.38
15544;BMP180;7873;52.230;12.856;2023-12-20T04:07:46;100151.19;;;26.38
15544;BMP180;7873;52.230;12.856;2023-12-20T04:10:13;100147.88;;;26.29
15544;BMP180;7873;52.230;12.856;2023-12-20T04:12:39;100150.59;;;26.29
15544;BMP180;7873;52.230;12.856;2023-12-20T04:15:06;100143.91;;;26.32
15544;BMP180;7873;52.230;12.856;2023-12-20T04:17:34;100148.91;;;26.35
15544;BMP180;7873;52.230;12.856;2023-12-20T04:20:01;100140.81;;;26.35
15544;BMP180;7873;52.230;12.856;2023-12-20T04:22:29;100147.22;;;26.40
15544;BMP180;7873;52.230;12.856;2023-12-20T04:24:55;100151.38;;;26.43
15544;BMP180;7873;52.230;12.856;2023-12-20T04:27:22;100159.47;;;26.43
15544;BMP180;7873;52.230;12.856;2023-12-20T04:29:48;100147.38;;;26.45
15544;BMP180;7873;52.230;12.856;2023-12-20T04:32:15;100146.56;;;26.45
15544;BMP180;7873;52.230;12.856;2023-12-20T04:34:41;100150.53;;;26.42
15544;BMP180;7873;52.230;12.856;2023-12-20T04:37:08;100144.94;;;26.37
15544;BMP180;7873;52.230;12.856;2023-12-20T04:39:35;100140.81;;;26.35
15544;BMP180;7873;52.230;12.856;2023-12-20T04:42:02;100142.25;;;26.31
15544;BMP180;7873;52.230;12.856;2023-12-20T04:44:29;100145.78;;;26.31
15544;BMP180;7873;52.230;12.856;2023-12-20T04:46:55;100145.81;;;26.25
15544;BMP180;7873;52.230;12.856;2023-12-20T04:49:22;100144.16;;;26.24
15544;BMP180;7873;52.230;12.856;2023-12-20T04:51:49;100147.03;;;26.29
15544;BMP180;7873;52.230;12.856;2023-12-20T04:54:15;100143.09;;;26.31
15544;BMP180;7873;52.230;12.856;2023-12-20T04:56:43;100148.69;;;26.36
15544;BMP180;7873;52.230;12.856;2023-12-20T04:59:10;100149.09;;;26.33
15544;BMP180;7873;52.230;12.856;2023-12-20T05:01:36;100162.81;;;26.32
15544;BMP180;7873;52.230;12.856;2023-12-20T05:04:03;100163.03;;;26.30
15544;BMP180;7873;52.230;12.856;2023-12-20T05:06:29;100163.66;;;26.32
15544;BMP180;7873;52.230;12.856;2023-12-20T05:08:56;100162.84;;;26.19
15544;BMP180;7873;52.230;12.856;2023-12-20T05:11:22;100150.81;;;26.15
15544;BMP180;7873;52.230;12.856;2023-12-20T05:13:50;100161.19;;;26.11
15544;BMP180;7873;52.230;12.856;2023-12-20T05:16:16;100159.34;;;26.12
15544;BMP180;7873;52.230;12.856;2023-12-20T05:18:43;100167.22;;;26.13
15544;BMP180;7873;52.230;12.856;2023-12-20T05:21:09;100160.78;;;26.08
15544;BMP180;7873;52.230;12.856;2023-12-20T05:23:36;100169.09;;;26.00
15544;BMP180;7873;52.230;12.856;2023-12-20T05:26:03;100163.28;;;26.03
15544;BMP180;7873;52.230;12.856;2023-12-20T05:28:29;100165.19;;;26.02
15544;BMP180;7873;52.230;12.856;2023-12-20T05:30:57;100162.69;;;26.01
15544;BMP180;7873;52.230;12.856;2023-12-20T05:33:23;100163.28;;;26.03
15544;BMP180;7873;52.230;12.856;2023-12-20T05:35:50;100160.19;;;25.99
15544;BMP180;7873;52.230;12.856;2023-12-20T05:38:16;100158.75;;;25.97
15544;BMP180;7873;52.230;12.856;2023-12-20T05:40:43;100149.19;;;25.94
15544;BMP180;7873;52.230;12.856;2023-12-20T05:43:09;100145.47;;;25.89
15544;BMP180;7873;52.230;12.856;2023-12-20T05:45:36;100150.22;;;25.87
15544;BMP180;7873;52.230;12.856;2023-12-20T05:48:04;100140.47;;;25.86
15544;BMP180;7873;52.230;12.856;2023-12-20T05:50:31;100136.34;;;25.83
15544;BMP180;7873;52.230;12.856;2023-12-20T05:52:57;100135.09;;;25.86
15544;BMP180;7873;52.230;12.856;2023-12-20T05:55:24;100128.88;;;25.85
15544;BMP180;7873;52.230;12.856;2023-12-20T05:57:50;100132.16;;;25.74
15544;BMP180;7873;52.230;12.856;2023-12-20T06:00:17;100134.47;;;25.64
15544;BMP180;7873;52.230;12.856;2023-12-20T06:02:44;100144.63;;;25.37
15544;BMP180;7873;52.230;12.856;2023-12-20T06:05:13;100137.50;;;25.10
15544;BMP180;7873;52.230;12.856;2023-12-20T06:07:40;100134.75;;;24.84
15544;BMP180;7873;52.230;12.856;2023-12-20T06:10:06;100135.09;;;24.61
15544;BMP180;7873;52.230;12.856;2023-12-20T06:12:33;100143.06;;;24.42
15544;BMP180;7873;52.230;12.856;2023-12-20T06:15:01;100137.00;;;24.33
15544;BMP180;7873;52.230;12.856;2023-12-20T06:17:28;100126.97;;;24.55
15544;BMP180;7873;52.230;12.856;2023-12-20T06:19:56;100137.59;;;24.69
15544;BMP180;7873;52.230;12.856;2023-12-20T06:22:23;100138.88;;;24.73
15544;BMP180;7873;52.230;12.856;2023-12-20T06:24:50;100137.44;;;24.84
15544;BMP180;7873;52.230;12.856;2023-12-20T06:27:16;100136.63;;;24.90
15544;BMP180;7873;52.230;12.856;2023-12-20T06:29:43;100136.78;;;24.82
15544;BMP180;7873;52.230;12.856;2023-12-20T06:32:10;100142.00;;;24.83
15544;BMP180;7873;52.230;12.856;2023-12-20T06:34:36;100139.09;;;24.78
15544;BMP180;7873;52.230;12.856;2023-12-20T06:37:03;100141.75;;;24.72
15544;BMP180;7873;52.230;12.856;2023-12-20T06:39:31;100149.38;;;24.62
15544;BMP180;7873;52.230;12.856;2023-12-20T06:41:59;100149.75;;;24.52
15544;BMP180;7873;52.230;12.856;2023-12-20T06:44:25;100148.66;;;24.47
15544;BMP180;7873;52.230;12.856;2023-12-20T06:46:52;100147.41;;;24.43
15544;BMP180;7873;52.230;12.856;2023-12-20T06:49:18;100141.00;;;24.44
15544;BMP180;7873;52.230;12.856;2023-12-20T06:51:45;100136.41;;;24.44
15544;BMP180;7873;52.230;12.856;2023-12-20T06:54:11;100130.22;;;24.44
15544;BMP180;7873;52.230;12.856;2023-12-20T06:56:39;100141.16;;;24.42
15544;BMP180;7873;52.230;12.856;2023-12-20T06:59:06;100149.47;;;24.41
15544;BMP180;7873;52.230;12.856;2023-12-20T07:01:33;100144.66;;;24.36
15544;BMP180;7873;52.230;12.856;2023-12-20T07:03:59;100150.06;;;24.36
15544;BMP180;7873;52.230;12.856;2023-12-20T07:06:26;100142.16;;;24.28
15544;BMP180;7873;52.230;12.856;2023-12-20T07:08:52;100154.13;;;24.26
15544;BMP180;7873;52.230;12.856;2023-12-20T07:11:18;100139.59;;;24.20
15544;BMP180;7873;52.230;12.856;2023-12-20T07:13:46;100137.31;;;24.17
15544;BMP180;7873;52.230;12.856;2023-12-20T07:16:13;100130.88;;;24.12
15544;BMP180;7873;52.230;12.856;2023-12-20T07:18:39;100127.34;;;24.11
15544;BMP180;7873;52.230;12.856;2023-12-20T07:21:06;100133.56;;;24.12
15544;BMP180;7873;52.230;12.856;2023-12-20T07:23:33;100123.81;;;24.11
15544;BMP180;7873;52.230;12.856;2023-12-20T07:25:59;100121.97;;;24.11
15544;BMP180;7873;52.230;12.856;2023-12-20T07:28:26;100131.66;;;24.06
15544;BMP180;7873;52.230;12.856;2023-12-20T07:30:54;100127.31;;;24.05
15544;BMP180;7873;52.230;12.856;2023-12-20T07:33:20;100124.19;;;24.01
15544;BMP180;7873;52.230;12.856;2023-12-20T07:35:47;100122.97;;;24.04
15544;BMP180;7873;52.230;12.856;2023-12-20T07:38:13;100122.16;;;24.03
15544;BMP180;7873;52.230;12.856;2023-12-20T07:40:40;100120.28;;;24.04
15544;BMP180;7873;52.230;12.856;2023-12-20T07:43:06;100125.47;;;24.05
15544;BMP180;7873;52.230;12.856;2023-12-20T07:45:33;100127.91;;;24.00
15544;BMP180;7873;52.230;12.856;2023-12-20T07:48:01;100127.09;;;24.00
15544;BMP180;7873;52.230;12.856;2023-12-20T07:50:27;100124.84;;;24.03
15544;BMP180;7873;52.230;12.856;2023-12-20T07:52:54;100125.59;;;23.97
15544;BMP180;7873;52.230;12.856;2023-12-20T07:55:20;100129.31;;;23.96
15544;BMP180;7873;52.230;12.856;2023-12-20T07:57:48;100132.63;;;23.92
15544;BMP180;7873;52.230;12.856;2023-12-20T08:00:15;100135.94;;;23.94
15544;BMP180;7873;52.230;12.856;2023-12-20T08:02:41;100126.84;;;23.95
15544;BMP180;7873;52.230;12.856;2023-12-20T08:05:09;100124.16;;;23.95
15544;BMP180;7873;52.230;12.856;2023-12-20T08:07:36;100124.97;;;23.95
15544;BMP180;7873;52.230;12.856;2023-12-20T08:10:03;100120.84;;;23.93
15544;BMP180;7873;52.230;12.856;2023-12-20T08:12:29;100129.28;;;23.90
15544;BMP180;7873;52.230;12.856;2023-12-20T08:14:56;100122.00;;;23.84
15544;BMP180;7873;52.230;12.856;2023-12-20T08:17:23;100130.69;;;23.86
15544;BMP180;7873;52.230;12.856;2023-12-20T08:19:49;100123.09;;;23.89
15544;BMP180;7873;52.230;12.856;2023-12-20T08:22:17;100132.75;;;23.84
15544;BMP180;7873;52.230;12.856;2023-12-20T08:24:43;100134.63;;;23.83
15544;BMP180;7873;52.230;12.856;2023-12-20T08:27:10;100130.06;;;23.84
15544;BMP180;7873;52.230;12.856;2023-12-20T08:29:36;100113.75;;;23.85
15544;BMP180;7873;52.230;12.856;2023-12-20T08:32:04;100120.97;;;23.85
15544;BMP180;7873;52.230;12.856;2023-12-20T08:34:31;100113.53;;;23.87
15544;BMP180;7873;52.230;12.856;2023-12-20T08:36:57;100106.56;;;23.92
15544;BMP180;7873;52.230;12.856;2023-12-20T08:39:25;100109.25;;;23.92
15544;BMP180;7873;52.230;12.856;2023-12-20T08:41:51;100100.31;;;23.85
15544;BMP180;7873;52.230;12.856;2023-12-20T08:44:18;100102.78;;;23.87
15544;BMP180;7873;52.230;12.856;2023-12-20T08:46:44;100111.94;;;23.92
15544;BMP180;7873;52.230;12.856;2023-12-20T08:49:11;100115.84;;;23.90
15544;BMP180;7873;52.230;12.856;2023-12-20T08:51:37;100118.91;;;23.87
15544;BMP180;7873;52.230;12.856;2023-12-20T08:54:06;100114.16;;;23.89
15544;BMP180;7873;52.230;12.856;2023-12-20T08:56:35;100109.19;;;23.86
15544;BMP180;7873;52.230;12.856;2023-12-20T08:59:01;100106.50;;;23.86
15544;BMP180;7873;52.230;12.856;2023-12-20T09:01:28;100107.34;;;23.86
15544;BMP180;7873;52.230;12.856;2023-12-20T09:03:54;100103.41;;;23.89
15544;BMP180;7873;52.230;12.856;2023-12-20T09:06:21;100099.88;;;23.82
15544;BMP180;7873;52.230;12.856;2023-12-20T09:08:47;100100.22;;;23.79
15544;BMP180;7873;52.230;12.856;2023-12-20T09:11:13;100092.34;;;23.77
15544;BMP180;7873;52.230;12.856;2023-12-20T09:13:41;100097.53;;;23.79
15544;BMP180;7873;52.230;12.856;2023-12-20T09:16:08;100091.72;;;23.75
15544;BMP180;7873;52.230;12.856;2023-12-20T09:18:35;100092.56;;;23.76
15544;BMP180;7873;52.230;12.856;2023-12-20T09:21:01;100088.00;;;23.76
15544;BMP180;7873;52.230;12.856;2023-12-20T09:23:28;100077.47;;;23.75
15544;BMP180;7873;52.230;12.856;2023-12-20T09:25:54;100086.56;;;23.74
15544;BMP180;7873;52.230;12.856;2023-12-20T09:28:20;100080.78;;;23.77
15544;BMP180;7873;52.230;12.856;2023-12-20T09:30:48;100090.69;;;23.76
15544;BMP180;7873;52.230;12.856;2023-12-20T09:33:15;100089.25;;;23.74
15544;BMP180;7873;52.230;12.856;2023-12-20T09:35:42;100082.59;;;23.70
15544;BMP180;7873;52.230;12.856;2023-12-20T09:38:09;100087.75;;;23.72
15544;BMP180;7873;52.230;12.856;2023-12-20T09:40:40;100082.38;;;23.72
15544;BMP180;7873;52.230;12.856;2023-12-20T09:43:11;100081.56;;;23.71
15544;BMP180;7873;52.230;12.856;2023-12-20T09:45:38;100077.00;;;23.72
15544;BMP180;7873;52.230;12.856;2023-12-20T09:48:10;100075.16;;;23.72
15544;BMP180;7873;52.230;12.856;2023-12-20T09:50:37;100070.59;;;23.73
15544;BMP180;7873;52.230;12.856;2023-12-20T09:53:08;100071.25;;;23.74
15544;BMP180;7873;52.230;12.856;2023-12-20T09:55:36;100071.63;;;23.72
15544;BMP180;7873;52.230;12.856;2023-12-20T09:58:03;100069.78;;;23.72
15544;BMP180;7873;52.230;12.856;2023-12-20T10:00:30;100070.59;;;23.73
15544;BMP180;7873;52.230;12.856;2023-12-20T10:02:57;100061.50;;;23.73
15544;BMP180;7873;52.230;12.856;2023-12-20T10:05:27;100060.25;;;23.70
15544;BMP180;7873;52.230;12.856;2023-12-20T10:07:54;100056.13;;;23.73
15544;BMP180;7873;52.230;12.856;2023-12-20T10:10:20;100053.44;;;23.73
15544;BMP180;7873;52.230;12.856;2023-12-20T10:13:01;100040.41;;;23.71
15544;BMP180;7873;52.230;12.856;2023-12-20T10:15:28;100040.41;;;23.71
15544;BMP180;7873;52.230;12.856;2023-12-20T10:17:54;100039.59;;;23.70
15544;BMP180;7873;52.230;12.856;2023-12-20T10:20:21;100024.28;;;23.71
15544;BMP180;7873;52.230;12.856;2023-12-20T10:22:48;100023.25;;;23.72
15544;BMP180;7873;52.230;12.856;2023-12-20T10:25:15;100027.38;;;23.68
15544;BMP180;7873;52.230;12.856;2023-12-20T10:27:42;100012.91;;;23.69
15544;BMP180;7873;52.230;12.856;2023-12-20T10:30:10;100011.41;;;23.66
15544;BMP180;7873;52.230;12.856;2023-12-20T10:32:36;100019.69;;;23.65
15544;BMP180;7873;52.230;12.856;2023-12-20T10:35:03;99999.22;;;23.64
15544;BMP180;7873;52.230;12.856;2023-12-20T10:37:30;100001.69;;;23.65
15544;BMP180;7873;52.230;12.856;2023-12-20T10:39:59;99987.44;;;23.65
15544;BMP180;7873;52.230;12.856;2023-12-20T10:42:26;99983.91;;;23.64
15544;BMP180;7873;52.230;12.856;2023-12-20T10:44:53;99980.81;;;23.61
15544;BMP180;7873;52.230;12.856;2023-12-20T10:47:20;99973.38;;;23.63
15544;BMP180;7873;52.230;12.856;2023-12-20T10:49:46;99977.69;;;23.57
15544;BMP180;7873;52.230;12.856;2023-12-20T10:52:13;99971.69;;;23.55
15544;BMP180;7873;52.230;12.856;2023-12-20T10:54:41;99966.31;;;23.55
15544;BMP180;7873;52.230;12.856;2023-12-20T10:57:09;99975.41;;;23.54
15544;BMP180;7873;52.230;12.856;2023-12-20T10:59:37;99968.38;;;23.53
15544;BMP180;7873;52.230;12.856;2023-12-20T11:02:04;99969.19;;;23.54
15544;BMP180;7873;52.230;12.856;2023-12-20T11:04:38;99961.53;;;23.51
15544;BMP180;7873;52.230;12.856;2023-12-20T11:07:17;99969.41;;;23.52
15544;BMP180;7873;52.230;12.856;2023-12-20T11:09:49;99958.03;;;23.50
15544;BMP180;7873;52.230;12.856;2023-12-20T11:12:22;99945.41;;;23.51
15544;BMP180;7873;52.230;12.856;2023-12-20T11:14:53;99945.16;;;23.46
15544;BMP180;7873;52.230;12.856;2023-12-20T11:17:21;99942.09;;;23.49
15544;BMP180;7873;52.230;12.856;2023-12-20T11:20:07;99941.06;;;23.50
15544;BMP180;7873;52.230;12.856;2023-12-20T11:22:36;99927.84;;;23.48
15544;BMP180;7873;52.230;12.856;2023-12-20T11:25:05;99928.66;;;23.49
15544;BMP180;7873;52.230;12.856;2023-12-20T11:27:35;99932.59;;;23.46
15544;BMP180;7873;52.230;12.856;2023-12-20T11:30:03;99917.69;;;23.44
15544;BMP180;7873;52.230;12.856;2023-12-20T11:32:32;99920.53;;;23.42
15544;BMP180;7873;52.230;12.856;2023-12-20T11:35:01;99922.41;;;23.42
15544;BMP180;7873;52.230;12.856;2023-12-20T11:37:29;99916.19;;;23.41
15544;BMP180;7873;52.230;12.856;2023-12-20T11:40:00;99916.19;;;23.41
15544;BMP180;7873;52.230;12.856;2023-12-20T11:42:27;99910.81;;;23.41
15544;BMP180;7873;52.230;12.856;2023-12-20T11:44:55;99901.97;;;23.41
15544;BMP180;7873;52.230;12.856;2023-12-20T11:47:22;99902.97;;;23.40
15544;BMP180;7873;52.230;12.856;2023-12-20T11:49:49;99888.09;;;23.37
15544;BMP180;7873;52.230;12.856;2023-12-20T11:52:16;99886.81;;;23.33
15544;BMP180;7873;52.230;12.856;2023-12-20T11:54:43;99884.97;;;23.34
15544;BMP180;7873;52.230;12.856;2023-12-20T11:57:09;99887.00;;;23.32
15544;BMP180;7873;52.230;12.856;2023-12-20T11:59:36;99881.84;;;23.30
15544;BMP180;7873;52.230;12.856;2023-12-20T12:02:04;99870.72;;;23.33
15544;BMP180;7873;52.230;12.856;2023-12-20T12:04:30;99856.03;;;23.29
15544;BMP180;7873;52.230;12.856;2023-12-20T12:06:57;99859.53;;;23.30
15544;BMP180;7873;52.230;12.856;2023-12-20T12:09:23;99852.72;;;23.27
15544;BMP180;7873;52.230;12.856;2023-12-20T12:11:49;99845.06;;;23.24
15544;BMP180;7873;52.230;12.856;2023-12-20T12:14:15;99842.78;;;23.28
15544;BMP180;7873;52.230;12.856;2023-12-20T12:16:42;99843.81;;;23.27
15544;BMP180;7873;52.230;12.856;2023-12-20T12:19:21;99838.66;;;23.25
15544;BMP180;7873;52.230;12.856;2023-12-20T12:21:47;99827.47;;;23.22
15544;BMP180;7873;52.230;12.856;2023-12-20T12:24:14;99836.75;;;23.19
15544;BMP180;7873;52.230;12.856;2023-12-20T12:26:40;99821.03;;;23.16
15544;BMP180;7873;52.230;12.856;2023-12-20T12:29:07;99810.28;;;23.16
15544;BMP180;7873;52.230;12.856;2023-12-20T12:31:34;99817.13;;;23.19
15544;BMP180;7873;52.230;12.856;2023-12-20T12:34:01;99806.38;;;23.19
15544;BMP180;7873;52.230;12.856;2023-12-20T12:36:30;99803.47;;;23.14
15544;BMP180;7873;52.230;12.856;2023-12-20T12:38:56;99796.81;;;23.10
15544;BMP180;7873;52.230;12.856;2023-12-20T12:41:23;99792.94;;;23.12
15544;BMP180;7873;52.230;12.856;2023-12-20T12:43:49;99791.28;;;23.11
15544;BMP180;7873;52.230;12.856;2023-12-20T12:46:16;99782.41;;;23.11
15544;BMP180;7873;52.230;12.856;2023-12-20T12:48:42;99774.13;;;23.12
15544;BMP180;7873;52.230;12.856;2023-12-20T12:51:09;99774.97;;;23.13
15544;BMP180;7873;52.230;12.856;2023-12-20T12:53:39;99772.47;;;23.11
15544;BMP180;7873;52.230;12.856;2023-12-20T12:56:06;99777.84;;;23.11
15544;BMP180;7873;52.230;12.856;2023-12-20T12:58:33;99771.25;;;23.14
15544;BMP180;7873;52.230;12.856;2023-12-20T13:01:00;99777.44;;;23.14
15544;BMP180;7873;52.230;12.856;2023-12-20T13:03:26;99761.53;;;23.13
15544;BMP180;7873;52.230;12.856;2023-12-20T13:05:53;99763.38;;;23.12
15544;BMP180;7873;52.230;12.856;2023-12-20T13:08:20;99755.31;;;23.12
15544;BMP180;7873;52.230;12.856;2023-12-20T13:10:48;99753.03;;;23.09
15544;BMP180;7873;52.230;12.856;2023-12-20T13:13:14;99746.59;;;23.04
15544;BMP180;7873;52.230;12.856;2023-12-20T13:15:41;99743.50;;;23.07
15544;BMP180;7873;52.230;12.856;2023-12-20T13:18:07;99746.19;;;23.07
15544;BMP180;7873;52.230;12.856;2023-12-20T13:20:34;99735.03;;;23.03
15544;BMP180;7873;52.230;12.856;2023-12-20T13:23:00;99735.66;;;23.05
15544;BMP180;7873;52.230;12.856;2023-12-20T13:25:28;99753.38;;;23.00
15544;BMP180;7873;52.230;12.856;2023-12-20T13:27:57;99764.34;;;22.98
15544;BMP180;7873;52.230;12.856;2023-12-20T13:30:24;99776.53;;;23.01
15544;BMP180;7873;52.230;12.856;2023-12-20T13:32:51;99789.31;;;22.99
15544;BMP180;7873;52.230;12.856;2023-12-20T13:35:17;99808.09;;;22.99
15544;BMP180;7873;52.230;12.856;2023-12-20T13:37:43;99825.06;;;22.99
15544;BMP180;7873;52.230;12.856;2023-12-20T13:40:10;99849.22;;;22.99
15544;BMP180;7873;52.230;12.856;2023-12-20T13:42:37;99848.59;;;22.97
15544;BMP180;7873;52.230;12.856;2023-12-20T13:45:07;99844.47;;;23.01
15544;BMP180;7873;52.230;12.856;2023-12-20T13:47:34;99829.16;;;22.95
15544;BMP180;7873;52.230;12.856;2023-12-20T13:50:02;99828.50;;;22.93
15544;BMP180;7873;52.230;12.856;2023-12-20T13:52:29;99827.13;;;22.97
15544;BMP180;7873;52.230;12.856;2023-12-20T13:54:55;99818.22;;;22.97
15544;BMP180;7873;52.230;12.856;2023-12-20T13:57:22;99816.75;;;22.94